PWSweather.com
Personal Weather Stations
Station Observations
IHTIMAN1
Neighbourhood 1, IhtimanBG 2050

Neighbourhood 1IhtimanBG 2050

Lat: 42.436852, Lon: 23.817921

Elevation: 2066

Station Type: Oregon Scientific WMR968

http://ihtiman-meteo.com

High Low Average
Temperature 37.6°F3.1°C 30.2°F-1.0°C 33.7°F0.9°C
Dew Point 35.2°F1.8°C 29.2°F-1.6°C 31.9°F-0.1°C
Winds 8.1 mph 13.0 kmh Calm Calm 4.0 mph SW6.4 kmh SW
Wind Gusts 12.7 mph20.4 kmh -- 6.0 mph9.7 kmh
Humidity 100% 78% 93%
Pressure 30.18 in1022.0 mb 30.00 in1015.9 mb -
Precipitation 0.00 in0.0 mm - -
Hour Temp Dew Point Humidity Winds Wind Gusts Pressure Precip Precip Rate Daily Precip Total
12:00 AM 30.4°F-0.9°C 29.2°F-1.6°C 95% Calm Calm -- 30.03 in1016.9 mb - 0.00 in0.0 mm 0.00 in0.0 mm
12:10 AM 30.5°F-0.8°C 29.3°F-1.5°C 95% Calm Calm -- 30.03 in1016.9 mb - 0.00 in0.0 mm 0.00 in0.0 mm
12:20 AM 30.7°F-0.7°C 29.7°F-1.3°C 96% Calm Calm -- 30.03 in1016.9 mb - 0.00 in0.0 mm 0.00 in0.0 mm
12:30 AM 30.7°F-0.7°C 29.7°F-1.3°C 96% Calm Calm -- 30.03 in1016.9 mb - 0.00 in0.0 mm 0.00 in0.0 mm
12:40 AM 30.9°F-0.6°C 29.9°F-1.2°C 96% Calm Calm -- 30.03 in1016.9 mb - 0.00 in0.0 mm 0.00 in0.0 mm
12:50 AM 30.9°F-0.6°C 30.2°F-1.0°C 97% Calm Calm -- 30.03 in1016.9 mb - 0.00 in0.0 mm 0.00 in0.0 mm
01:00 AM 30.9°F-0.6°C 30.2°F-1.0°C 97% Calm Calm -- 30.03 in1016.9 mb - 0.00 in0.0 mm 0.00 in0.0 mm
01:10 AM 30.9°F-0.6°C 30.2°F-1.0°C 97% Calm Calm -- 30.03 in1016.9 mb - 0.00 in0.0 mm 0.00 in0.0 mm
01:20 AM 30.7°F-0.7°C 30.0°F-1.1°C 97% Calm Calm -- 30.03 in1016.9 mb - 0.00 in0.0 mm 0.00 in0.0 mm
01:30 AM 30.7°F-0.7°C 30.0°F-1.1°C 97% Calm Calm -- 30.03 in1016.9 mb - 0.00 in0.0 mm 0.00 in0.0 mm
01:40 AM 30.7°F-0.7°C 30.0°F-1.1°C 97% Calm Calm -- 30.03 in1016.9 mb - 0.00 in0.0 mm 0.00 in0.0 mm
01:50 AM 30.2°F-1.0°C 29.5°F-1.4°C 97% Calm Calm -- 30.03 in1016.9 mb - 0.00 in0.0 mm 0.00 in0.0 mm
02:00 AM 30.7°F-0.7°C 30.0°F-1.1°C 97% Calm Calm -- 30.03 in1016.9 mb - 0.00 in0.0 mm 0.00 in0.0 mm
02:10 AM 30.7°F-0.7°C 30.0°F-1.1°C 97% Calm Calm -- 30.03 in1016.9 mb - 0.00 in0.0 mm 0.00 in0.0 mm
02:20 AM 30.9°F-0.6°C 30.1°F-1.1°C 97% Calm Calm -- 30.03 in1016.9 mb - 0.00 in0.0 mm 0.00 in0.0 mm
02:30 AM 30.9°F-0.6°C 30.2°F-1.0°C 97% Calm Calm -- 30.03 in1016.9 mb - 0.00 in0.0 mm 0.00 in0.0 mm
02:40 AM 30.7°F-0.7°C 30.0°F-1.1°C 97% Calm Calm -- 30.03 in1016.9 mb - 0.00 in0.0 mm 0.00 in0.0 mm
02:50 AM 30.7°F-0.7°C 30.0°F-1.1°C 97% 2.3 mph S3.7 kmh S 3.5 mph5.6 kmh 30.03 in1016.9 mb - 0.00 in0.0 mm 0.00 in0.0 mm
03:00 AM 31.1°F-0.5°C 30.3°F-0.9°C 97% 2.3 mph SE3.7 kmh SE 3.5 mph5.6 kmh 30.03 in1016.9 mb - 0.00 in0.0 mm 0.00 in0.0 mm
03:10 AM 31.2°F-0.4°C 30.4°F-0.9°C 97% Calm Calm 2.3 mph3.7 kmh 30.03 in1016.9 mb - 0.00 in0.0 mm 0.00 in0.0 mm
03:20 AM 32.0°F0.0°C 31.2°F-0.4°C 97% 1.2 mph S1.9 kmh S 2.3 mph3.7 kmh 30.00 in1015.9 mb - 0.00 in0.0 mm 0.00 in0.0 mm
03:30 AM 32.4°F0.2°C 31.6°F-0.2°C 97% Calm Calm -- 30.03 in1016.9 mb - 0.00 in0.0 mm 0.00 in0.0 mm
03:40 AM 32.5°F0.3°C 31.5°F-0.3°C 96% Calm Calm -- 30.03 in1016.9 mb - 0.00 in0.0 mm 0.00 in0.0 mm
03:50 AM 32.7°F0.4°C 31.5°F-0.3°C 95% Calm Calm -- 30.03 in1016.9 mb - 0.00 in0.0 mm 0.00 in0.0 mm
04:00 AM 33.3°F0.7°C 31.7°F-0.2°C 94% Calm Calm -- 30.03 in1016.9 mb - 0.00 in0.0 mm 0.00 in0.0 mm
04:20 AM 33.3°F0.7°C 31.2°F-0.4°C 92% Calm Calm -- 30.00 in1015.9 mb - 0.00 in0.0 mm 0.00 in0.0 mm
04:30 AM 33.6°F0.9°C 31.5°F-0.3°C 92% Calm Calm -- 30.00 in1015.9 mb - 0.00 in0.0 mm 0.00 in0.0 mm
04:40 AM 33.8°F1.0°C 31.5°F-0.3°C 91% Calm Calm -- 30.00 in1015.9 mb - 0.00 in0.0 mm 0.00 in0.0 mm
04:50 AM 34.6°F1.4°C 32.3°F0.2°C 91% Calm Calm -- 30.00 in1015.9 mb - 0.00 in0.0 mm 0.00 in0.0 mm
05:00 AM 34.9°F1.6°C 32.2°F0.1°C 90% Calm Calm -- 30.00 in1015.9 mb - 0.00 in0.0 mm 0.00 in0.0 mm
05:20 AM 36.0°F2.2°C 32.8°F0.4°C 88% Calm Calm -- 30.03 in1016.9 mb - 0.00 in0.0 mm 0.00 in0.0 mm
05:30 AM 35.8°F2.1°C 32.6°F0.3°C 88% Calm Calm -- 30.03 in1016.9 mb - 0.00 in0.0 mm 0.00 in0.0 mm
05:40 AM 35.6°F2.0°C 32.4°F0.2°C 88% Calm Calm -- 30.03 in1016.9 mb - 0.00 in0.0 mm 0.00 in0.0 mm
05:50 AM 35.9°F2.2°C 33.0°F0.6°C 89% Calm Calm -- 30.03 in1016.9 mb - 0.00 in0.0 mm 0.00 in0.0 mm
06:00 AM 36.1°F2.3°C 33.5°F0.8°C 90% Calm Calm -- 30.03 in1016.9 mb - 0.00 in0.0 mm 0.00 in0.0 mm
06:10 AM 36.3°F2.4°C 33.9°F1.1°C 91% 1.2 mph ESE1.9 kmh ESE 2.3 mph3.7 kmh 30.03 in1016.9 mb - 0.00 in0.0 mm 0.00 in0.0 mm
06:20 AM 36.5°F2.5°C 34.1°F1.2°C 91% Calm Calm -- 30.03 in1016.9 mb - 0.00 in0.0 mm 0.00 in0.0 mm
06:30 AM 37.6°F3.1°C 35.2°F1.8°C 91% 3.5 mph E5.6 kmh E 3.5 mph5.6 kmh 30.03 in1016.9 mb - 0.00 in0.0 mm 0.00 in0.0 mm
06:40 AM 37.2°F2.9°C 34.8°F1.6°C 91% Calm Calm 2.3 mph3.7 kmh 30.03 in1016.9 mb - 0.00 in0.0 mm 0.00 in0.0 mm
06:50 AM 37.0°F2.8°C 34.4°F1.3°C 90% 3.5 mph N5.6 kmh N 5.8 mph9.3 kmh 30.06 in1017.9 mb - 0.00 in0.0 mm 0.00 in0.0 mm
07:00 AM 37.0°F2.8°C 34.4°F1.3°C 90% 2.3 mph N3.7 kmh N 3.5 mph5.6 kmh 30.06 in1017.9 mb - 0.00 in0.0 mm 0.00 in0.0 mm
07:10 AM 37.0°F2.8°C 34.4°F1.3°C 90% 4.6 mph N7.4 kmh N 5.8 mph9.3 kmh 30.06 in1017.9 mb - 0.00 in0.0 mm 0.00 in0.0 mm
07:20 AM 37.0°F2.8°C 34.4°F1.3°C 90% 4.6 mph N7.4 kmh N 5.8 mph9.3 kmh 30.06 in1017.9 mb - 0.00 in0.0 mm 0.00 in0.0 mm
07:30 AM 37.0°F2.8°C 34.4°F1.3°C 90% 4.6 mph N7.4 kmh N 5.8 mph9.3 kmh 30.06 in1017.9 mb - 0.00 in0.0 mm 0.00 in0.0 mm
07:40 AM 37.0°F2.8°C 34.1°F1.2°C 89% 4.6 mph N7.4 kmh N 5.8 mph9.3 kmh 30.06 in1017.9 mb - 0.00 in0.0 mm 0.00 in0.0 mm
07:50 AM 37.0°F2.8°C 34.1°F1.2°C 89% 4.6 mph N7.4 kmh N 8.1 mph13.0 kmh 30.06 in1017.9 mb - 0.00 in0.0 mm 0.00 in0.0 mm
08:00 AM 37.0°F2.8°C 34.1°F1.2°C 89% 4.6 mph N7.4 kmh N 8.1 mph13.0 kmh 30.09 in1019.0 mb - 0.00 in0.0 mm 0.00 in0.0 mm
08:10 AM 36.9°F2.7°C 33.6°F0.9°C 88% 4.6 mph N7.4 kmh N 6.9 mph11.1 kmh 30.09 in1019.0 mb - 0.00 in0.0 mm 0.00 in0.0 mm
08:20 AM 36.9°F2.7°C 33.6°F0.9°C 88% 4.6 mph N7.4 kmh N 4.6 mph7.4 kmh 30.09 in1019.0 mb - 0.00 in0.0 mm 0.00 in0.0 mm
08:30 AM 36.9°F2.7°C 33.6°F0.9°C 88% 5.8 mph N9.3 kmh N 8.1 mph13.0 kmh 30.09 in1019.0 mb - 0.00 in0.0 mm 0.00 in0.0 mm
08:40 AM 36.7°F2.6°C 33.2°F0.7°C 87% 6.9 mph N11.1 kmh N 11.5 mph18.5 kmh 30.09 in1019.0 mb - 0.00 in0.0 mm 0.00 in0.0 mm
08:50 AM 36.9°F2.7°C 33.4°F0.8°C 87% 5.8 mph NNW9.3 kmh NNW 8.1 mph13.0 kmh 30.09 in1019.0 mb - 0.00 in0.0 mm 0.00 in0.0 mm
09:00 AM 36.7°F2.6°C 32.9°F0.5°C 86% 4.6 mph N7.4 kmh N 5.8 mph9.3 kmh 30.09 in1019.0 mb - 0.00 in0.0 mm 0.00 in0.0 mm
09:10 AM 36.9°F2.7°C 33.1°F0.6°C 86% 4.6 mph N7.4 kmh N 5.8 mph9.3 kmh 30.09 in1019.0 mb - 0.00 in0.0 mm 0.00 in0.0 mm
09:20 AM 36.9°F2.7°C 33.1°F0.6°C 86% 4.6 mph N7.4 kmh N 5.8 mph9.3 kmh 30.09 in1019.0 mb - 0.00 in0.0 mm 0.00 in0.0 mm
09:30 AM 37.2°F2.9°C 33.1°F0.6°C 85% 4.6 mph NNE7.4 kmh NNE 8.1 mph13.0 kmh 30.09 in1019.0 mb - 0.00 in0.0 mm 0.00 in0.0 mm
09:40 AM 37.4°F3.0°C 32.7°F0.4°C 83% 4.6 mph N7.4 kmh N 8.1 mph13.0 kmh 30.09 in1019.0 mb - 0.00 in0.0 mm 0.00 in0.0 mm
09:50 AM 37.2°F2.9°C 32.2°F0.1°C 82% 5.8 mph N9.3 kmh N 8.1 mph13.0 kmh 30.09 in1019.0 mb - 0.00 in0.0 mm 0.00 in0.0 mm
10:00 AM 37.2°F2.9°C 31.9°F-0.1°C 81% 5.8 mph N9.3 kmh N 9.2 mph14.8 kmh 30.09 in1019.0 mb - 0.00 in0.0 mm 0.00 in0.0 mm
10:10 AM 37.0°F2.8°C 31.8°F-0.1°C 81% 6.9 mph N11.1 kmh N 10.4 mph16.7 kmh 30.09 in1019.0 mb - 0.00 in0.0 mm 0.00 in0.0 mm
10:20 AM 36.9°F2.7°C 31.3°F-0.4°C 80% 6.9 mph N11.1 kmh N 9.2 mph14.8 kmh 30.06 in1017.9 mb - 0.00 in0.0 mm 0.00 in0.0 mm
10:30 AM 36.8°F2.7°C 30.9°F-0.6°C 79% 5.8 mph N9.3 kmh N 8.1 mph13.0 kmh 30.09 in1019.0 mb - 0.00 in0.0 mm 0.00 in0.0 mm
10:40 AM 36.7°F2.6°C 30.8°F-0.7°C 79% 6.9 mph N11.1 kmh N 10.4 mph16.7 kmh 30.09 in1019.0 mb - 0.00 in0.0 mm 0.00 in0.0 mm
10:50 AM 36.7°F2.6°C 30.8°F-0.7°C 79% 5.8 mph N9.3 kmh N 9.2 mph14.8 kmh 30.09 in1019.0 mb - 0.00 in0.0 mm 0.00 in0.0 mm
11:00 AM 36.7°F2.6°C 30.5°F-0.8°C 78% 6.9 mph N11.1 kmh N 9.2 mph14.8 kmh 30.09 in1019.0 mb - 0.00 in0.0 mm 0.00 in0.0 mm
11:10 AM 36.5°F2.5°C 30.6°F-0.8°C 79% 6.9 mph N11.1 kmh N 10.4 mph16.7 kmh 30.09 in1019.0 mb - 0.00 in0.0 mm 0.00 in0.0 mm
11:20 AM 36.5°F2.5°C 30.6°F-0.8°C 79% 6.9 mph N11.1 kmh N 9.2 mph14.8 kmh 30.09 in1019.0 mb - 0.00 in0.0 mm 0.00 in0.0 mm
11:30 AM 36.3°F2.4°C 30.4°F-0.9°C 79% 6.9 mph N11.1 kmh N 10.4 mph16.7 kmh 30.09 in1019.0 mb - 0.00 in0.0 mm 0.00 in0.0 mm
11:40 AM 36.3°F2.4°C 30.7°F-0.7°C 80% 5.8 mph N9.3 kmh N 8.1 mph13.0 kmh 30.09 in1019.0 mb - 0.00 in0.0 mm 0.00 in0.0 mm
11:50 AM 36.3°F2.4°C 31.0°F-0.6°C 81% 5.8 mph N9.3 kmh N 8.1 mph13.0 kmh 30.09 in1019.0 mb - 0.00 in0.0 mm 0.00 in0.0 mm
12:00 PM 36.3°F2.4°C 31.4°F-0.3°C 82% 6.9 mph N11.1 kmh N 9.2 mph14.8 kmh 30.09 in1019.0 mb - 0.00 in0.0 mm 0.00 in0.0 mm
12:10 PM 36.3°F2.4°C 31.9°F-0.1°C 84% 5.8 mph N9.3 kmh N 8.1 mph13.0 kmh 30.09 in1019.0 mb - 0.00 in0.0 mm 0.00 in0.0 mm
12:20 PM 36.3°F2.4°C 32.2°F0.1°C 85% 6.9 mph N11.1 kmh N 10.4 mph16.7 kmh 30.09 in1019.0 mb - 0.00 in0.0 mm 0.00 in0.0 mm
12:30 PM 36.3°F2.4°C 32.8°F0.4°C 87% 5.8 mph N9.3 kmh N 8.1 mph13.0 kmh 30.09 in1019.0 mb - 0.00 in0.0 mm 0.00 in0.0 mm
12:40 PM 36.7°F2.6°C 33.5°F0.8°C 88% 5.8 mph N9.3 kmh N 9.2 mph14.8 kmh 30.09 in1019.0 mb - 0.00 in0.0 mm 0.00 in0.0 mm
12:50 PM 37.0°F2.8°C 34.0°F1.1°C 89% 6.9 mph N11.1 kmh N 11.5 mph18.5 kmh 30.09 in1019.0 mb - 0.00 in0.0 mm 0.00 in0.0 mm
01:00 PM 37.0°F2.8°C 34.1°F1.2°C 89% 6.9 mph N11.1 kmh N 8.1 mph13.0 kmh 30.09 in1019.0 mb - 0.00 in0.0 mm 0.00 in0.0 mm
01:10 PM 36.5°F2.5°C 33.3°F0.7°C 88% 6.9 mph N11.1 kmh N 9.2 mph14.8 kmh 30.09 in1019.0 mb - 0.00 in0.0 mm 0.00 in0.0 mm
01:20 PM 36.1°F2.3°C 33.2°F0.7°C 89% 6.9 mph N11.1 kmh N 10.4 mph16.7 kmh 30.09 in1019.0 mb - 0.00 in0.0 mm 0.00 in0.0 mm
01:30 PM 36.0°F2.2°C 33.0°F0.6°C 89% 6.9 mph N11.1 kmh N 10.4 mph16.7 kmh 30.09 in1019.0 mb - 0.00 in0.0 mm 0.00 in0.0 mm
01:40 PM 35.8°F2.1°C 32.9°F0.5°C 89% 5.8 mph N9.3 kmh N 8.1 mph13.0 kmh 30.09 in1019.0 mb - 0.00 in0.0 mm 0.00 in0.0 mm
01:50 PM 35.6°F2.0°C 32.7°F0.4°C 89% 6.9 mph N11.1 kmh N 9.2 mph14.8 kmh 30.09 in1019.0 mb - 0.00 in0.0 mm 0.00 in0.0 mm
02:00 PM 35.1°F1.7°C 32.1°F0.1°C 89% 6.9 mph N11.1 kmh N 9.2 mph14.8 kmh 30.09 in1019.0 mb - 0.00 in0.0 mm 0.00 in0.0 mm
02:10 PM 34.9°F1.6°C 32.0°F0.0°C 89% 3.5 mph N5.6 kmh N 4.6 mph7.4 kmh 30.09 in1019.0 mb - 0.00 in0.0 mm 0.00 in0.0 mm
02:20 PM 34.6°F1.4°C 31.7°F-0.2°C 89% 4.6 mph N7.4 kmh N 5.8 mph9.3 kmh 30.09 in1019.0 mb - 0.00 in0.0 mm 0.00 in0.0 mm
02:30 PM 34.5°F1.4°C 31.9°F-0.1°C 90% 5.8 mph N9.3 kmh N 8.1 mph13.0 kmh 30.06 in1017.9 mb - 0.00 in0.0 mm 0.00 in0.0 mm
02:40 PM 34.3°F1.3°C 32.3°F0.2°C 92% 5.8 mph N9.3 kmh N 8.1 mph13.0 kmh 30.06 in1017.9 mb - 0.00 in0.0 mm 0.00 in0.0 mm
02:50 PM 34.0°F1.1°C 32.2°F0.1°C 93% 4.6 mph N7.4 kmh N 9.2 mph14.8 kmh 30.09 in1019.0 mb - 0.00 in0.0 mm 0.00 in0.0 mm
03:00 PM 33.8°F1.0°C 32.3°F0.2°C 94% 5.8 mph NNW9.3 kmh NNW 9.2 mph14.8 kmh 30.06 in1017.9 mb - 0.00 in0.0 mm 0.00 in0.0 mm
03:10 PM 33.6°F0.9°C 32.3°F0.2°C 95% 4.6 mph N7.4 kmh N 10.4 mph16.7 kmh 30.06 in1017.9 mb - 0.00 in0.0 mm 0.00 in0.0 mm
03:20 PM 33.4°F0.8°C 32.4°F0.2°C 96% 5.8 mph N9.3 kmh N 11.5 mph18.5 kmh 30.09 in1019.0 mb - 0.00 in0.0 mm 0.00 in0.0 mm
03:30 PM 33.3°F0.7°C 32.5°F0.3°C 97% 8.1 mph N13.0 kmh N 10.4 mph16.7 kmh 30.09 in1019.0 mb - 0.00 in0.0 mm 0.00 in0.0 mm
03:40 PM 33.3°F0.7°C 32.8°F0.4°C 98% 4.6 mph N7.4 kmh N 8.1 mph13.0 kmh 30.09 in1019.0 mb - 0.00 in0.0 mm 0.00 in0.0 mm
03:50 PM 33.1°F0.6°C 33.1°F0.6°C 100% 4.6 mph N7.4 kmh N 8.1 mph13.0 kmh 30.09 in1019.0 mb - 0.00 in0.0 mm 0.00 in0.0 mm
04:00 PM 33.1°F0.6°C 33.1°F0.6°C 100% 5.8 mph N9.3 kmh N 8.1 mph13.0 kmh 30.09 in1019.0 mb - 0.00 in0.0 mm 0.00 in0.0 mm
04:10 PM 32.9°F0.5°C 32.9°F0.5°C 100% 5.8 mph N9.3 kmh N 11.5 mph18.5 kmh 30.09 in1019.0 mb - 0.00 in0.0 mm 0.00 in0.0 mm
04:20 PM 32.7°F0.4°C 32.7°F0.4°C 100% 3.5 mph N5.6 kmh N 5.8 mph9.3 kmh 30.09 in1019.0 mb - 0.00 in0.0 mm 0.00 in0.0 mm
04:30 PM 32.7°F0.4°C 32.7°F0.4°C 100% 4.6 mph N7.4 kmh N 5.8 mph9.3 kmh 30.09 in1019.0 mb - 0.00 in0.0 mm 0.00 in0.0 mm
04:40 PM 32.7°F0.4°C 32.7°F0.4°C 100% 4.6 mph N7.4 kmh N 5.8 mph9.3 kmh 30.09 in1019.0 mb - 0.00 in0.0 mm 0.00 in0.0 mm
04:50 PM 32.5°F0.3°C 32.5°F0.3°C 100% 5.8 mph N9.3 kmh N 8.1 mph13.0 kmh 30.09 in1019.0 mb - 0.00 in0.0 mm 0.00 in0.0 mm
05:00 PM 32.5°F0.3°C 32.5°F0.3°C 100% 4.6 mph N7.4 kmh N 8.1 mph13.0 kmh 30.09 in1019.0 mb - 0.00 in0.0 mm 0.00 in0.0 mm
05:10 PM 32.4°F0.2°C 32.4°F0.2°C 100% 4.6 mph N7.4 kmh N 5.8 mph9.3 kmh 30.09 in1019.0 mb - 0.00 in0.0 mm 0.00 in0.0 mm
05:20 PM 32.2°F0.1°C 32.2°F0.1°C 100% 4.6 mph N7.4 kmh N 5.8 mph9.3 kmh 30.09 in1019.0 mb - 0.00 in0.0 mm 0.00 in0.0 mm
05:30 PM 32.2°F0.1°C 32.2°F0.1°C 100% 2.3 mph NNW3.7 kmh NNW 5.8 mph9.3 kmh 30.12 in1020.0 mb - 0.00 in0.0 mm 0.00 in0.0 mm
05:40 PM 32.2°F0.1°C 32.2°F0.1°C 100% 6.9 mph N11.1 kmh N 10.4 mph16.7 kmh 30.12 in1020.0 mb - 0.00 in0.0 mm 0.00 in0.0 mm
05:50 PM 32.2°F0.1°C 32.2°F0.1°C 100% 5.8 mph N9.3 kmh N 8.1 mph13.0 kmh 30.12 in1020.0 mb - 0.00 in0.0 mm 0.00 in0.0 mm
06:00 PM 32.0°F0.0°C 32.0°F0.0°C 100% 5.8 mph NNW9.3 kmh NNW 10.4 mph16.7 kmh 30.12 in1020.0 mb - 0.00 in0.0 mm 0.00 in0.0 mm
06:10 PM 31.9°F-0.1°C 31.9°F-0.1°C 100% 6.9 mph N11.1 kmh N 10.4 mph16.7 kmh 30.12 in1020.0 mb - 0.00 in0.0 mm 0.00 in0.0 mm
06:20 PM 31.7°F-0.2°C 31.7°F-0.2°C 100% 6.9 mph N11.1 kmh N 12.7 mph20.4 kmh 30.15 in1021.0 mb - 0.00 in0.0 mm 0.00 in0.0 mm
06:30 PM 31.6°F-0.2°C 31.6°F-0.2°C 100% 4.6 mph N7.4 kmh N 10.4 mph16.7 kmh 30.15 in1021.0 mb - 0.00 in0.0 mm 0.00 in0.0 mm
06:40 PM 31.6°F-0.2°C 31.6°F-0.2°C 100% 4.6 mph N7.4 kmh N 8.1 mph13.0 kmh 30.15 in1021.0 mb - 0.00 in0.0 mm 0.00 in0.0 mm
06:50 PM 31.6°F-0.2°C 31.6°F-0.2°C 100% 4.6 mph NNW7.4 kmh NNW 5.8 mph9.3 kmh 30.15 in1021.0 mb - 0.00 in0.0 mm 0.00 in0.0 mm
07:00 PM 31.6°F-0.2°C 31.6°F-0.2°C 100% 4.6 mph N7.4 kmh N 8.1 mph13.0 kmh 30.15 in1021.0 mb - 0.00 in0.0 mm 0.00 in0.0 mm
07:10 PM 31.6°F-0.2°C 31.6°F-0.2°C 100% 4.6 mph N7.4 kmh N 8.1 mph13.0 kmh 30.15 in1021.0 mb - 0.00 in0.0 mm 0.00 in0.0 mm
07:20 PM 31.6°F-0.2°C 31.6°F-0.2°C 100% 4.6 mph NNW7.4 kmh NNW 5.8 mph9.3 kmh 30.15 in1021.0 mb - 0.00 in0.0 mm 0.00 in0.0 mm
07:30 PM 31.8°F-0.1°C 31.8°F-0.1°C 100% 2.3 mph NNW3.7 kmh NNW 5.8 mph9.3 kmh 30.15 in1021.0 mb - 0.00 in0.0 mm 0.00 in0.0 mm
07:40 PM 32.0°F0.0°C 32.0°F0.0°C 100% 2.3 mph NNW3.7 kmh NNW 3.5 mph5.6 kmh 30.15 in1021.0 mb - 0.00 in0.0 mm 0.00 in0.0 mm
07:50 PM 32.0°F0.0°C 32.0°F0.0°C 100% 3.5 mph NNW5.6 kmh NNW 5.8 mph9.3 kmh 30.18 in1022.0 mb - 0.00 in0.0 mm 0.00 in0.0 mm
08:00 PM 32.0°F0.0°C 32.0°F0.0°C 100% 3.5 mph NW5.6 kmh NW 5.8 mph9.3 kmh 30.15 in1021.0 mb - 0.00 in0.0 mm 0.00 in0.0 mm
08:10 PM 31.8°F-0.1°C 31.8°F-0.1°C 100% 2.3 mph NW3.7 kmh NW 2.3 mph3.7 kmh 30.15 in1021.0 mb - 0.00 in0.0 mm 0.00 in0.0 mm
08:20 PM 31.8°F-0.1°C 31.8°F-0.1°C 100% 3.5 mph NW5.6 kmh NW 3.5 mph5.6 kmh 30.15 in1021.0 mb - 0.00 in0.0 mm 0.00 in0.0 mm
08:30 PM 31.8°F-0.1°C 31.8°F-0.1°C 100% 3.5 mph NW5.6 kmh NW 5.8 mph9.3 kmh 30.18 in1022.0 mb - 0.00 in0.0 mm 0.00 in0.0 mm
08:40 PM 31.8°F-0.1°C 31.8°F-0.1°C 100% 4.6 mph NW7.4 kmh NW 5.8 mph9.3 kmh 30.18 in1022.0 mb - 0.00 in0.0 mm 0.00 in0.0 mm
08:50 PM 31.6°F-0.2°C 31.6°F-0.2°C 100% 4.6 mph NW7.4 kmh NW 6.9 mph11.1 kmh 30.18 in1022.0 mb - 0.00 in0.0 mm 0.00 in0.0 mm
09:00 PM 31.6°F-0.2°C 31.6°F-0.2°C 100% 4.6 mph NW7.4 kmh NW 5.8 mph9.3 kmh 30.18 in1022.0 mb - 0.00 in0.0 mm 0.00 in0.0 mm
09:10 PM 31.6°F-0.2°C 31.6°F-0.2°C 100% 3.5 mph NW5.6 kmh NW 5.8 mph9.3 kmh 30.18 in1022.0 mb - 0.00 in0.0 mm 0.00 in0.0 mm
09:20 PM 31.6°F-0.2°C 31.6°F-0.2°C 100% 4.6 mph WNW7.4 kmh WNW 5.8 mph9.3 kmh 30.18 in1022.0 mb - 0.00 in0.0 mm 0.00 in0.0 mm
09:30 PM 31.5°F-0.3°C 31.5°F-0.3°C 100% 3.5 mph NW5.6 kmh NW 5.8 mph9.3 kmh 30.18 in1022.0 mb - 0.00 in0.0 mm 0.00 in0.0 mm
09:40 PM 31.3°F-0.4°C 31.3°F-0.4°C 100% 3.5 mph NW5.6 kmh NW 5.8 mph9.3 kmh 30.18 in1022.0 mb - 0.00 in0.0 mm 0.00 in0.0 mm
09:50 PM 31.5°F-0.3°C 31.5°F-0.3°C 100% 3.5 mph NW5.6 kmh NW 4.6 mph7.4 kmh 30.18 in1022.0 mb - 0.00 in0.0 mm 0.00 in0.0 mm
10:00 PM 31.5°F-0.3°C 31.5°F-0.3°C 100% 4.6 mph NW7.4 kmh NW 5.8 mph9.3 kmh 30.18 in1022.0 mb - 0.00 in0.0 mm 0.00 in0.0 mm
10:10 PM 31.5°F-0.3°C 31.5°F-0.3°C 100% 5.8 mph NW9.3 kmh NW 9.2 mph14.8 kmh 30.18 in1022.0 mb - 0.00 in0.0 mm 0.00 in0.0 mm
10:20 PM 31.5°F-0.3°C 31.5°F-0.3°C 100% 4.6 mph NW7.4 kmh NW 5.8 mph9.3 kmh 30.18 in1022.0 mb - 0.00 in0.0 mm 0.00 in0.0 mm
10:30 PM 31.3°F-0.4°C 31.3°F-0.4°C 100% 4.6 mph NW7.4 kmh NW 5.8 mph9.3 kmh 30.18 in1022.0 mb - 0.00 in0.0 mm 0.00 in0.0 mm
10:40 PM 31.3°F-0.4°C 31.3°F-0.4°C 100% 3.5 mph NW5.6 kmh NW 5.8 mph9.3 kmh 30.18 in1022.0 mb - 0.00 in0.0 mm 0.00 in0.0 mm
10:50 PM 31.3°F-0.4°C 31.3°F-0.4°C 100% 3.5 mph N5.6 kmh N 5.8 mph9.3 kmh 30.18 in1022.0 mb - 0.00 in0.0 mm 0.00 in0.0 mm
11:00 PM 31.3°F-0.4°C 31.3°F-0.4°C 100% 3.5 mph NW5.6 kmh NW 4.6 mph7.4 kmh 30.18 in1022.0 mb - 0.00 in0.0 mm 0.00 in0.0 mm
11:10 PM 31.3°F-0.4°C 31.3°F-0.4°C 100% 4.6 mph NW7.4 kmh NW 5.8 mph9.3 kmh 30.18 in1022.0 mb - 0.00 in0.0 mm 0.00 in0.0 mm
11:20 PM 31.1°F-0.5°C 31.1°F-0.5°C 100% 4.6 mph NW7.4 kmh NW 5.8 mph9.3 kmh 30.18 in1022.0 mb - 0.00 in0.0 mm 0.00 in0.0 mm
11:30 PM 31.1°F-0.5°C 31.1°F-0.5°C 100% 4.6 mph NW7.4 kmh NW 5.8 mph9.3 kmh 30.18 in1022.0 mb - 0.00 in0.0 mm 0.00 in0.0 mm
11:40 PM 31.1°F-0.5°C 31.1°F-0.5°C 100% 5.8 mph NW9.3 kmh NW 5.8 mph9.3 kmh 30.18 in1022.0 mb - 0.00 in0.0 mm 0.00 in0.0 mm
11:50 PM 31.1°F-0.5°C 30.3°F-0.9°C 97% 4.6 mph NNW7.4 kmh NNW 5.8 mph9.3 kmh 30.18 in1022.0 mb - 0.00 in0.0 mm 0.00 in0.0 mm